createdAt,value
2018-12-01T00:01:56.366Z,100263.95
2018-12-01T00:05:00.954Z,100258.16
2018-12-01T00:08:05.786Z,100255.77
2018-12-01T00:11:10.374Z,100260.13
2018-12-01T00:14:14.937Z,100262.17
2018-12-01T00:17:19.514Z,100265.62
2018-12-01T00:20:25.457Z,100265.83
2018-12-01T00:23:30.142Z,100265.59
2018-12-01T00:26:34.727Z,100266.33
2018-12-01T00:29:39.560Z,100268.25
2018-12-01T00:32:44.718Z,100278.70
2018-12-01T00:35:49.342Z,100272.06
2018-12-01T00:38:54.023Z,100278.84
2018-12-01T00:41:58.600Z,100280.53
2018-12-01T00:45:03.190Z,100284.69
2018-12-01T00:48:07.750Z,100283.89
2018-12-01T00:51:12.330Z,100280.03
2018-12-01T00:54:16.859Z,100282.06
2018-12-01T00:57:21.506Z,100278.16
2018-12-01T01:00:26.804Z,100273.31
2018-12-01T01:03:31.422Z,100258.11
2018-12-01T01:06:35.975Z,100263.11
2018-12-01T01:09:40.589Z,100255.92
2018-12-01T01:12:45.162Z,100255.55
2018-12-01T01:15:49.758Z,100258.33
2018-12-01T01:18:54.390Z,100258.11
2018-12-01T01:21:58.982Z,100246.12
2018-12-01T01:25:03.561Z,100245.34
2018-12-01T01:28:08.314Z,100240.79
2018-12-01T01:31:12.953Z,100238.84
2018-12-01T01:34:17.529Z,100241.83
2018-12-01T01:37:22.202Z,100236.66
2018-12-01T01:40:26.745Z,100230.66
2018-12-01T01:43:31.381Z,100224.07
2018-12-01T01:46:35.902Z,100225.36
2018-12-01T01:49:40.483Z,100226.94
2018-12-01T01:52:45.145Z,100229.94
2018-12-01T01:55:49.721Z,100232.05
2018-12-01T01:58:54.394Z,100238.53
2018-12-01T02:01:58.946Z,100250.28
2018-12-01T02:05:03.494Z,100250.34
2018-12-01T02:08:08.100Z,100261.77
2018-12-01T02:11:12.690Z,100264.28
2018-12-01T02:14:17.457Z,100262.70
2018-12-01T02:17:21.991Z,100260.19
2018-12-01T02:20:26.534Z,100263.09
2018-12-01T02:23:31.189Z,100256.38
2018-12-01T02:26:35.819Z,100253.45
2018-12-01T02:29:40.468Z,100257.02
2018-12-01T02:32:45.008Z,100259.64
2018-12-01T02:35:49.609Z,100260.28
2018-12-01T02:38:54.446Z,100260.79
2018-12-01T02:41:59.058Z,100260.87
2018-12-01T02:45:14.659Z,100264.26
2018-12-01T02:48:19.202Z,100249.16
2018-12-01T02:51:23.757Z,100246.77
2018-12-01T02:54:28.326Z,100242.12
2018-12-01T02:57:32.897Z,100250.84
2018-12-01T03:00:44.360Z,100243.81
2018-12-01T03:03:48.953Z,100236.94
2018-12-01T03:06:53.487Z,100239.72
2018-12-01T03:09:58.093Z,100243.11
2018-12-01T03:13:02.651Z,100234.03
2018-12-01T03:16:07.369Z,100227.73
2018-12-01T03:19:11.929Z,100233.86
2018-12-01T03:22:16.521Z,100239.97
2018-12-01T03:25:22.821Z,100240.46
2018-12-01T03:28:27.385Z,100248.83
2018-12-01T03:31:31.964Z,100246.16
2018-12-01T03:34:36.555Z,100251.80
2018-12-01T03:37:43.787Z,100244.69
2018-12-01T03:40:48.437Z,100244.37
2018-12-01T03:43:53.052Z,100260.18
2018-12-01T03:46:57.676Z,100264.73
2018-12-01T03:50:02.228Z,100254.66
2018-12-01T03:53:07.591Z,100257.23
2018-12-01T03:56:12.297Z,100254.53
2018-12-01T03:59:16.973Z,100244.19
2018-12-01T04:02:21.517Z,100253.95
2018-12-01T04:05:26.126Z,100254.44
2018-12-01T04:08:30.674Z,100258.24
2018-12-01T04:11:35.321Z,100261.64
2018-12-01T04:14:40.033Z,100275.59
2018-12-01T04:17:44.602Z,100275.73
2018-12-01T04:20:49.146Z,100272.13
2018-12-01T04:23:53.726Z,100266.21
2018-12-01T04:26:59.246Z,100274.37
2018-12-01T04:30:04.409Z,100272.25
2018-12-01T04:33:09.133Z,100268.09
2018-12-01T04:36:13.736Z,100274.87
2018-12-01T04:39:18.723Z,100273.63
2018-12-01T04:42:23.463Z,100272.88
2018-12-01T04:45:28.029Z,100270.92
2018-12-01T04:48:32.629Z,100270.32
2018-12-01T04:51:37.240Z,100273.33
2018-12-01T04:54:41.802Z,100270.59
2018-12-01T04:57:46.401Z,100269.36
2018-12-01T05:00:50.972Z,100279.38
2018-12-01T05:03:55.518Z,100270.25
2018-12-01T05:07:00.205Z,100265.03
2018-12-01T05:10:06.528Z,100284.80
2018-12-01T05:13:11.138Z,100276.53
2018-12-01T05:16:15.680Z,100282.98
2018-12-01T05:19:20.253Z,100284.97
2018-12-01T05:22:24.888Z,100288.70
2018-12-01T05:25:29.479Z,100300.69
2018-12-01T05:28:34.009Z,100293.06
2018-12-01T05:31:38.560Z,100295.48
2018-12-01T05:34:43.149Z,100295.38
2018-12-01T05:37:47.698Z,100298.71
2018-12-01T05:40:52.789Z,100300.52
2018-12-01T05:43:57.419Z,100301.99
2018-12-01T05:47:02.022Z,100306.41
2018-12-01T05:50:07.869Z,100307.84
2018-12-01T05:53:12.498Z,100319.66
2018-12-01T05:56:17.177Z,100319.19
2018-12-01T05:59:21.733Z,100315.30
2018-12-01T06:02:26.274Z,100316.28
2018-12-01T06:05:30.892Z,100324.41
2018-12-01T06:08:35.414Z,100323.62
2018-12-01T06:11:40.025Z,100327.88
2018-12-01T06:14:44.660Z,100335.17
2018-12-01T06:17:49.208Z,100340.45
2018-12-01T06:20:53.753Z,100341.42
2018-12-01T06:23:58.378Z,100343.41
2018-12-01T06:27:02.918Z,100357.58
2018-12-01T06:30:17.190Z,100349.23
2018-12-01T06:33:21.741Z,100342.08
2018-12-01T06:36:26.360Z,100348.71
2018-12-01T06:39:30.899Z,100356.31
2018-12-01T06:42:35.431Z,100366.36
2018-12-01T06:45:39.958Z,100359.70
2018-12-01T06:48:44.630Z,100363.70
2018-12-01T06:51:49.233Z,100358.30
2018-12-01T06:54:53.855Z,100362.38
2018-12-01T06:57:58.398Z,100369.13
2018-12-01T07:01:03.008Z,100374.10
2018-12-01T07:04:07.562Z,100379.61
2018-12-01T07:07:12.114Z,100374.39
2018-12-01T07:10:18.890Z,100377.64
2018-12-01T07:13:23.453Z,100384.00
2018-12-01T07:16:28.024Z,100380.33
2018-12-01T07:19:32.609Z,100381.25
2018-12-01T07:22:37.167Z,100389.13
2018-12-01T07:25:41.869Z,100383.17
2018-12-01T07:28:46.410Z,100385.07
2018-12-01T07:31:51.029Z,100380.88
2018-12-01T07:34:55.607Z,100382.25
2018-12-01T07:38:01.214Z,100389.44
2018-12-01T07:41:06.294Z,100400.83
2018-12-01T07:44:10.914Z,100411.05
2018-12-01T07:47:15.518Z,100404.61
2018-12-01T07:50:20.701Z,100405.53
2018-12-01T07:53:25.250Z,100402.84
2018-12-01T07:56:31.057Z,100401.44
2018-12-01T07:59:35.657Z,100396.40
2018-12-01T08:02:40.421Z,100393.94
2018-12-01T08:05:45.004Z,100396.31
2018-12-01T08:08:49.625Z,100405.81
2018-12-01T08:11:54.179Z,100388.20
2018-12-01T08:14:58.750Z,100388.80
2018-12-01T08:18:04.432Z,100391.01
2018-12-01T08:21:09.020Z,100389.52
2018-12-01T08:24:13.590Z,100383.59
2018-12-01T08:27:18.185Z,100382.73
2018-12-01T08:30:24.130Z,100379.44
2018-12-01T08:33:28.761Z,100377.54
2018-12-01T08:36:33.635Z,100373.00
2018-12-01T08:39:38.807Z,100371.39
2018-12-01T08:42:43.921Z,100373.62
2018-12-01T08:45:49.053Z,100373.90
2018-12-01T08:48:53.950Z,100373.44
2018-12-01T08:51:58.903Z,100376.02
2018-12-01T08:55:03.492Z,100375.36
2018-12-01T08:58:08.094Z,100368.05
2018-12-01T09:01:12.653Z,100366.16
2018-12-01T09:04:17.238Z,100353.15
2018-12-01T09:07:21.838Z,100350.59
2018-12-01T09:10:26.402Z,100352.19
2018-12-01T09:13:31.504Z,100349.92
2018-12-01T09:16:36.440Z,100343.77
2018-12-01T09:19:41.047Z,100337.72
2018-12-01T09:22:46.419Z,100334.02
2018-12-01T09:25:50.954Z,100336.35
2018-12-01T09:28:55.613Z,100335.58
2018-12-01T09:32:00.210Z,100331.84
2018-12-01T09:35:04.853Z,100330.50
2018-12-01T09:38:09.426Z,100332.23
2018-12-01T09:41:14.007Z,100327.53
2018-12-01T09:44:18.561Z,100323.75
2018-12-01T09:47:23.166Z,100323.16
2018-12-01T09:50:27.796Z,100309.95
2018-12-01T09:53:32.405Z,100311.86
2018-12-01T09:56:36.958Z,100310.83
2018-12-01T09:59:41.570Z,100313.50
2018-12-01T10:02:47.897Z,100311.75
2018-12-01T10:05:52.488Z,100309.89
2018-12-01T10:08:57.926Z,100301.17
2018-12-01T10:12:02.570Z,100310.16
2018-12-01T10:15:11.314Z,100308.63
2018-12-01T10:18:17.050Z,100308.90
2018-12-01T10:21:21.869Z,100310.19
2018-12-01T10:24:26.558Z,100307.06
2018-12-01T10:27:31.182Z,100303.30
2018-12-01T10:30:35.768Z,100299.81
2018-12-01T10:33:40.509Z,100301.63
2018-12-01T10:36:46.532Z,100304.73
2018-12-01T10:39:51.433Z,100303.62
2018-12-01T10:42:56.019Z,100306.66
2018-12-01T10:46:00.611Z,100303.77
2018-12-01T10:49:05.337Z,100302.46
2018-12-01T10:52:10.222Z,100302.61
2018-12-01T10:55:33.935Z,100304.46
2018-12-01T10:58:38.636Z,100302.17
2018-12-01T11:01:48.335Z,100292.89
2018-12-01T11:04:52.988Z,100289.45
2018-12-01T11:07:57.524Z,100294.37
2018-12-01T11:11:02.157Z,100290.50
2018-12-01T11:14:06.837Z,100286.51
2018-12-01T11:17:11.442Z,100281.90
2018-12-01T11:20:16.012Z,100287.76
2018-12-01T11:23:20.662Z,100289.14
2018-12-01T11:26:25.290Z,100282.27
2018-12-01T11:29:29.889Z,100269.52
2018-12-01T11:32:34.523Z,100259.58
2018-12-01T11:35:39.205Z,100263.84
2018-12-01T11:38:43.775Z,100256.46
2018-12-01T11:41:48.389Z,100254.89
2018-12-01T11:44:56.869Z,100255.56
2018-12-01T11:47:57.651Z,100252.20
2018-12-01T11:51:02.275Z,100244.41
2018-12-01T11:54:06.874Z,100236.80
2018-12-01T11:57:11.509Z,100229.82
2018-12-01T12:00:17.019Z,100230.75
2018-12-01T12:03:21.743Z,100231.83
2018-12-01T12:06:26.374Z,100219.59
2018-12-01T12:09:31.029Z,100229.86
2018-12-01T12:12:35.721Z,100233.80
2018-12-01T12:15:40.397Z,100235.28
2018-12-01T12:18:45.119Z,100235.31
2018-12-01T12:21:49.750Z,100236.58
2018-12-01T12:24:54.293Z,100239.00
2018-12-01T12:27:59.084Z,100238.58
2018-12-01T12:31:03.695Z,100240.12
2018-12-01T12:34:08.313Z,100246.45
2018-12-01T12:37:12.943Z,100249.85
2018-12-01T12:40:27.034Z,100245.19
2018-12-01T12:43:31.621Z,100243.98
2018-12-01T12:46:36.241Z,100250.09
2018-12-01T12:49:40.902Z,100252.15
2018-12-01T12:52:46.570Z,100245.46
2018-12-01T12:55:51.186Z,100246.58
2018-12-01T12:58:55.796Z,100239.11
2018-12-01T13:02:00.350Z,100240.30
2018-12-01T13:05:06.276Z,100229.05
2018-12-01T13:08:11.658Z,100225.79
2018-12-01T13:11:16.266Z,100233.44
2018-12-01T13:14:21.058Z,100233.34
2018-12-01T13:17:25.607Z,100234.61
2018-12-01T13:20:30.142Z,100234.63
2018-12-01T13:23:34.801Z,100236.98
2018-12-01T13:26:39.458Z,100243.84
2018-12-01T13:29:44.051Z,100231.77
2018-12-01T13:32:48.806Z,100236.22
2018-12-01T13:35:53.429Z,100239.08
2018-12-01T13:38:58.336Z,100235.36
2018-12-01T13:42:03.003Z,100229.79
2018-12-01T13:45:09.930Z,100230.77
2018-12-01T13:48:14.577Z,100228.71
2018-12-01T13:51:19.280Z,100240.95
2018-12-01T13:54:23.927Z,100241.42
2018-12-01T13:57:28.487Z,100244.93
2018-12-01T14:00:33.133Z,100246.05
2018-12-01T14:03:38.334Z,100242.91
2018-12-01T14:06:42.355Z,100243.78
2018-12-01T14:09:46.928Z,100244.15
2018-12-01T14:12:52.906Z,100236.23
2018-12-01T14:15:57.466Z,100241.94
2018-12-01T14:19:02.068Z,100242.50
2018-12-01T14:22:06.614Z,100247.97
2018-12-01T14:25:12.091Z,100251.73
2018-12-01T14:28:16.678Z,100262.02
2018-12-01T14:31:21.263Z,100258.14
2018-12-01T14:34:25.848Z,100261.12
2018-12-01T14:37:30.414Z,100265.98
2018-12-01T14:40:35.110Z,100263.14
2018-12-01T14:43:39.686Z,100256.84
2018-12-01T14:46:44.511Z,100253.06
2018-12-01T14:49:49.162Z,100255.20
2018-12-01T14:52:53.741Z,100257.05
2018-12-01T14:55:58.338Z,100249.99
2018-12-01T14:59:02.966Z,100256.12
2018-12-01T15:02:07.821Z,100247.97
2018-12-01T15:05:12.541Z,100249.66
2018-12-01T15:08:17.117Z,100249.47
2018-12-01T15:11:21.818Z,100255.73
2018-12-01T15:14:26.468Z,100249.99
2018-12-01T15:17:30.993Z,100252.97
2018-12-01T15:20:35.826Z,100261.00
2018-12-01T15:23:40.380Z,100253.16
2018-12-01T15:26:45.001Z,100265.72
2018-12-01T15:29:49.581Z,100268.22
2018-12-01T15:33:11.466Z,100272.38
2018-12-01T15:36:16.528Z,100282.82
2018-12-01T15:39:28.246Z,100286.20
2018-12-01T15:42:32.830Z,100277.16
2018-12-01T15:45:37.499Z,100276.11
2018-12-01T15:48:42.175Z,100279.28
2018-12-01T15:51:46.850Z,100288.19
2018-12-01T15:54:51.502Z,100288.98
2018-12-01T15:57:56.085Z,100292.65
2018-12-01T16:01:00.763Z,100296.20
2018-12-01T16:04:05.905Z,100298.42
2018-12-01T16:07:10.505Z,100300.17
2018-12-01T16:10:16.540Z,100305.08
2018-12-01T16:13:22.502Z,100307.45
2018-12-01T16:16:27.190Z,100304.47
2018-12-01T16:19:31.792Z,100307.55
2018-12-01T16:22:36.530Z,100307.08
2018-12-01T16:25:41.147Z,100305.14
2018-12-01T16:28:45.740Z,100306.41
2018-12-01T16:31:50.343Z,100307.81
2018-12-01T16:34:55.177Z,100308.11
2018-12-01T16:37:59.880Z,100308.91
2018-12-01T16:41:36.816Z,100301.55
2018-12-01T16:44:41.457Z,100309.47
2018-12-01T16:47:46.128Z,100312.97
2018-12-01T16:50:50.910Z,100308.53
2018-12-01T16:53:55.673Z,100308.85
2018-12-01T16:57:00.322Z,100312.37
2018-12-01T17:00:08.483Z,100314.78
2018-12-01T17:03:13.959Z,100310.82
2018-12-01T17:06:19.708Z,100311.22
2018-12-01T17:09:24.321Z,100311.30
2018-12-01T17:12:28.992Z,100310.66
2018-12-01T17:15:33.889Z,100317.30
2018-12-01T17:18:38.546Z,100315.37
2018-12-01T17:21:43.261Z,100318.40
2018-12-01T17:24:47.969Z,100321.58
2018-12-01T17:27:53.704Z,100324.05
2018-12-01T17:30:58.297Z,100323.55
2018-12-01T17:34:02.918Z,100326.46
2018-12-01T17:37:07.535Z,100325.70
2018-12-01T17:40:41.230Z,100324.61
2018-12-01T17:43:50.092Z,100325.50
2018-12-01T17:46:55.987Z,100322.40
2018-12-01T17:50:00.642Z,100328.58
2018-12-01T17:53:10.493Z,100329.09
2018-12-01T17:56:18.072Z,100329.45
2018-12-01T17:59:22.716Z,100336.75
2018-12-01T18:02:27.398Z,100336.27
2018-12-01T18:05:42.202Z,100341.89
2018-12-01T18:08:46.777Z,100337.22
2018-12-01T18:11:51.495Z,100334.99
2018-12-01T18:14:56.318Z,100327.30
2018-12-01T18:18:01.064Z,100326.91
2018-12-01T18:21:05.840Z,100331.38
2018-12-01T18:24:10.543Z,100328.97
2018-12-01T18:27:15.221Z,100331.77
2018-12-01T18:30:24.571Z,100324.00
2018-12-01T18:33:31.069Z,100329.91
2018-12-01T18:36:35.706Z,100326.95
2018-12-01T18:39:40.361Z,100326.84
2018-12-01T18:42:45.006Z,100325.78
2018-12-01T18:45:52.341Z,100319.38
2018-12-01T18:48:57.875Z,100337.02
2018-12-01T18:52:02.538Z,100327.66
2018-12-01T18:55:09.765Z,100335.61
2018-12-01T18:58:14.493Z,100334.11
2018-12-01T19:01:19.066Z,100333.61
2018-12-01T19:04:24.179Z,100323.70
2018-12-01T19:07:28.802Z,100329.02
2018-12-01T19:10:34.300Z,100323.85
2018-12-01T19:13:38.994Z,100327.75
2018-12-01T19:16:43.661Z,100323.36
2018-12-01T19:19:49.233Z,100321.58
2018-12-01T19:22:56.654Z,100325.63
2018-12-01T19:26:01.749Z,100324.41
2018-12-01T19:29:07.086Z,100328.87
2018-12-01T19:32:11.802Z,100327.80
2018-12-01T19:35:17.222Z,100330.84
2018-12-01T19:38:27.995Z,100332.14
2018-12-01T19:41:32.631Z,100345.72
2018-12-01T19:44:37.260Z,100348.23
2018-12-01T19:47:41.905Z,100342.69
2018-12-01T19:50:46.566Z,100342.61
2018-12-01T19:53:51.217Z,100342.48
2018-12-01T19:56:55.850Z,100341.75
2018-12-01T20:00:00.522Z,100342.69
2018-12-01T20:03:07.098Z,100343.41
2018-12-01T20:06:11.929Z,100328.69
2018-12-01T20:09:16.587Z,100328.13
2018-12-01T20:12:21.253Z,100336.30
2018-12-01T20:15:29.594Z,100330.27
2018-12-01T20:18:34.214Z,100327.23
2018-12-01T20:21:38.838Z,100336.31
2018-12-01T20:24:43.620Z,100330.39
2018-12-01T20:27:48.247Z,100332.75
2018-12-01T20:30:52.841Z,100331.46
2018-12-01T20:33:59.300Z,100335.66
2018-12-01T20:37:07.651Z,100334.29
2018-12-01T20:40:15.923Z,100330.28
2018-12-01T20:43:20.474Z,100327.63
2018-12-01T20:46:25.165Z,100326.53
2018-12-01T20:49:29.843Z,100325.84
2018-12-01T20:52:34.417Z,100329.51
2018-12-01T20:55:40.042Z,100324.34
2018-12-01T20:58:44.621Z,100327.81
2018-12-01T21:01:49.226Z,100335.89
2018-12-01T21:04:53.786Z,100331.18
2018-12-01T21:08:02.245Z,100323.84
2018-12-01T21:11:04.897Z,100323.81
2018-12-01T21:14:09.520Z,100326.02
2018-12-01T21:17:14.209Z,100321.39
2018-12-01T21:20:19.281Z,100321.68
2018-12-01T21:23:23.843Z,100325.83
2018-12-01T21:26:28.400Z,100331.31
2018-12-01T21:29:33.067Z,100336.67
2018-12-01T21:32:37.621Z,100333.34
2018-12-01T21:35:42.306Z,100332.42
2018-12-01T21:38:46.859Z,100327.66
2018-12-01T21:41:51.509Z,100326.30
2018-12-01T21:44:56.076Z,100325.48
2018-12-01T21:48:00.626Z,100322.31
2018-12-01T21:51:05.215Z,100326.02
2018-12-01T21:54:09.791Z,100329.79
2018-12-01T21:57:14.438Z,100333.10
2018-12-01T22:00:22.250Z,100340.05
2018-12-01T22:03:27.770Z,100343.37
2018-12-01T22:06:32.385Z,100343.97
2018-12-01T22:09:39.555Z,100347.19
2018-12-01T22:12:44.383Z,100347.62
2018-12-01T22:15:49.044Z,100354.06
2018-12-01T22:18:53.614Z,100342.41
2018-12-01T22:21:58.324Z,100341.89
2018-12-01T22:25:03.030Z,100336.00
2018-12-01T22:28:09.639Z,100339.48
2018-12-01T22:31:14.345Z,100335.09
2018-12-01T22:34:18.928Z,100340.91
2018-12-01T22:37:23.495Z,100331.44
2018-12-01T22:40:30.293Z,100332.20
2018-12-01T22:43:34.878Z,100334.89
2018-12-01T22:46:39.531Z,100334.77
2018-12-01T22:49:44.175Z,100333.71
2018-12-01T22:52:50.475Z,100335.03
2018-12-01T22:55:55.108Z,100326.16
2018-12-01T22:58:59.661Z,100327.36
2018-12-01T23:02:04.420Z,100325.77
2018-12-01T23:05:09.080Z,100325.48
2018-12-01T23:08:17.152Z,100326.36
2018-12-01T23:11:21.874Z,100327.44
2018-12-01T23:14:26.525Z,100323.84
2018-12-01T23:17:31.242Z,100318.23
2018-12-01T23:20:35.911Z,100318.56
2018-12-01T23:23:40.503Z,100312.61
2018-12-01T23:26:45.163Z,100311.19
2018-12-01T23:29:49.734Z,100312.94
2018-12-01T23:32:59.533Z,100316.08
2018-12-01T23:36:08.203Z,100312.41
2018-12-01T23:39:14.105Z,100313.44
2018-12-01T23:42:18.699Z,100312.45
2018-12-01T23:45:23.663Z,100315.86
2018-12-01T23:48:28.362Z,100320.44
2018-12-01T23:51:32.929Z,100329.62
2018-12-01T23:54:37.559Z,100324.83
2018-12-01T23:57:42.205Z,100327.05
